Time;durP1;ratioP1;P1;durP2;ratioP2;P2;SDS_P1;SDS_P2;PMS_P1;PMS_P2;Temp;Humidity;BMP_temperature;BMP_pressure;BME280_temperature;BME280_humidity;BME280_pressure;Samples;Min_cycle;Max_cycle;Signal;HPM_P1;HPM_P2
2023/02/28 00:00:37;;;;;;;13.32;4.95;;;1.10;80.10;;;;;;4681536;30;20820;-82
2023/02/28 00:03:05;;;;;;;16.33;5.55;;;1.20;80.20;;;;;;4684855;30;20057;-82
2023/02/28 00:05:33;;;;;;;11.25;4.97;;;1.20;80.60;;;;;;4695909;30;20087;-82
2023/02/28 00:08:00;;;;;;;16.00;5.78;;;1.20;80.40;;;;;;4696522;30;20060;-82
2023/02/28 00:10:29;;;;;;;13.70;4.90;;;1.10;80.30;;;;;;4684893;30;20789;-82
2023/02/28 00:13:00;;;;;;;12.45;5.10;;;1.10;80.20;;;;;;4687842;30;20509;-82
2023/02/28 00:15:28;;;;;;;15.05;5.03;;;1.10;80.20;;;;;;4709222;30;20064;-82
2023/02/28 00:17:55;;;;;;;10.68;4.55;;;1.10;80.50;;;;;;4685045;30;20525;-82
2023/02/28 00:20:23;;;;;;;13.02;5.15;;;1.10;80.30;;;;;;4706651;30;20056;-82
2023/02/28 00:22:52;;;;;;;12.85;5.05;;;1.10;80.40;;;;;;4696921;30;20056;-82
2023/02/28 00:25:23;;;;;;;14.05;5.28;;;1.10;80.30;;;;;;4694303;30;20049;-82
2023/02/28 00:27:51;;;;;;;16.60;6.38;;;1.10;80.20;;;;;;4696722;30;20059;-82
2023/02/28 00:30:21;;;;;;;16.00;5.80;;;1.10;80.40;;;;;;4682594;30;20056;-81
2023/02/28 00:32:49;;;;;;;13.45;5.93;;;1.10;80.50;;;;;;4696571;30;20087;-82
2023/02/28 00:35:16;;;;;;;15.52;5.60;;;1.10;81.10;;;;;;4700579;30;20060;-82
2023/02/28 00:37:43;;;;;;;14.30;5.25;;;1.20;80.70;;;;;;4688892;30;20061;-82
2023/02/28 00:40:11;;;;;;;15.00;5.85;;;1.20;81.10;;;;;;4695613;30;20064;-82
2023/02/28 00:42:39;;;;;;;18.20;6.35;;;1.20;81.50;;;;;;4694789;30;20506;-82
2023/02/28 00:45:08;;;;;;;19.10;6.40;;;1.20;81.20;;;;;;4704196;30;20053;-82
2023/02/28 00:47:37;;;;;;;17.73;7.18;;;1.20;81.10;;;;;;4694689;30;20068;-82
2023/02/28 00:50:05;;;;;;;13.75;5.53;;;1.20;81.00;;;;;;4694643;30;22248;-82
2023/02/28 00:52:32;;;;;;;17.58;5.65;;;1.20;81.00;;;;;;4685117;30;20064;-82
2023/02/28 00:55:00;;;;;;;16.52;6.60;;;1.20;81.10;;;;;;4707266;30;20056;-82
2023/02/28 00:57:27;;;;;;;20.00;7.13;;;1.20;80.80;;;;;;4672079;30;20060;-82
2023/02/28 00:59:54;;;;;;;13.77;6.00;;;1.30;81.20;;;;;;4688104;30;20061;-82
2023/02/28 01:02:23;;;;;;;17.75;6.15;;;1.30;81.40;;;;;;4694674;30;20049;-82
2023/02/28 01:04:52;;;;;;;14.48;5.85;;;1.30;80.90;;;;;;4685258;30;20052;-82
2023/02/28 01:07:19;;;;;;;18.92;6.80;;;1.30;81.10;;;;;;4709766;30;20786;-82
2023/02/28 01:09:46;;;;;;;16.05;5.60;;;1.30;81.70;;;;;;4705775;30;20056;-82
2023/02/28 01:12:13;;;;;;;16.35;5.85;;;1.20;81.40;;;;;;4699142;30;20730;-82
2023/02/28 01:14:41;;;;;;;16.80;6.70;;;1.30;81.80;;;;;;4672107;30;20060;-81
2023/02/28 01:17:09;;;;;;;14.77;6.32;;;1.30;81.80;;;;;;4694923;30;20061;-82
2023/02/28 01:19:36;;;;;;;19.58;7.57;;;1.20;82.30;;;;;;4697537;30;20060;-82
2023/02/28 01:22:05;;;;;;;17.00;7.50;;;1.30;82.00;;;;;;4674110;30;20116;-82
2023/02/28 01:24:32;;;;;;;19.00;6.35;;;1.30;82.00;;;;;;4687403;30;20525;-82
2023/02/28 01:27:00;;;;;;;18.75;6.68;;;1.30;81.90;;;;;;4698246;30;20671;-81
2023/02/28 01:29:27;;;;;;;13.35;5.55;;;1.30;81.80;;;;;;4716745;30;20068;-82
2023/02/28 01:31:55;;;;;;;14.85;6.13;;;1.30;81.50;;;;;;4711578;30;20056;-82
2023/02/28 01:34:22;;;;;;;19.77;5.97;;;1.30;81.80;;;;;;4702873;30;20060;-82
2023/02/28 01:36:50;;;;;;;14.05;6.25;;;1.30;81.70;;;;;;4704747;30;20067;-82
2023/02/28 01:39:18;;;;;;;14.48;5.35;;;1.30;82.00;;;;;;4711159;30;20095;-82
2023/02/28 01:41:46;;;;;;;17.95;6.57;;;1.30;82.10;;;;;;4697375;30;20061;-82
2023/02/28 01:44:50;;;;;;;20.10;7.22;;;1.30;81.80;;;;;;4673350;30;21236;-82
2023/02/28 01:47:18;;;;;;;26.92;7.00;;;1.30;82.00;;;;;;4697625;30;20068;-82
2023/02/28 01:49:45;;;;;;;23.83;8.15;;;1.20;82.50;;;;;;4696259;30;20057;-82
2023/02/28 01:52:17;;;;;;;24.23;8.65;;;1.20;82.10;;;;;;4714461;30;20107;-82
2023/02/28 01:54:50;;;;;;;24.77;7.22;;;1.20;83.50;;;;;;4696862;30;20061;-82
2023/02/28 01:57:21;;;;;;;20.70;7.40;;;1.20;82.60;;;;;;4692756;30;20068;-82
2023/02/28 01:59:58;;;;;;;22.27;7.85;;;1.20;82.70;;;;;;4698197;30;22827;-82
2023/02/28 02:02:26;;;;;;;23.35;7.68;;;1.20;82.70;;;;;;4697467;30;20064;-82
2023/02/28 02:05:15;;;;;;;18.50;7.45;;;1.20;83.30;;;;;;4687519;30;20051;-82
2023/02/28 02:07:45;;;;;;;25.98;8.32;;;1.20;83.30;;;;;;4716382;30;20189;-82
2023/02/28 02:10:18;;;;;;;20.05;6.53;;;1.20;82.40;;;;;;4694066;30;20049;-82
2023/02/28 02:13:24;;;;;;;19.15;7.22;;;1.20;82.90;;;;;;4708141;30;20108;-82
2023/02/28 02:16:18;;;;;;;16.83;6.43;;;1.20;83.20;;;;;;4664008;30;20057;-81
2023/02/28 02:19:04;;;;;;;16.50;6.15;;;1.20;83.10;;;;;;4694788;30;20613;-82
2023/02/28 02:21:50;;;;;;;20.80;6.57;;;1.20;83.60;;;;;;4693831;30;20068;-82
2023/02/28 02:24:49;;;;;;;15.10;6.50;;;1.20;83.50;;;;;;4697862;30;22000;-81
2023/02/28 02:27:38;;;;;;;12.65;6.28;;;1.10;83.70;;;;;;4693437;30;20144;-82
2023/02/28 02:30:23;;;;;;;18.73;7.35;;;1.20;83.30;;;;;;4693142;30;20072;-82
2023/02/28 02:33:37;;;;;;;22.40;7.35;;;1.20;83.90;;;;;;4691259;30;20060;-82
2023/02/28 02:36:07;;;;;;;17.75;5.78;;;1.20;83.20;;;;;;4665466;30;20156;-82
2023/02/28 02:38:49;;;;;;;22.02;7.13;;;1.20;83.10;;;;;;4699216;30;20057;-82
2023/02/28 02:41:41;;;;;;;17.20;6.38;;;1.20;83.30;;;;;;4700395;30;20060;-82
2023/02/28 02:44:28;;;;;;;16.42;6.35;;;1.20;83.40;;;;;;4698984;30;20274;-82
2023/02/28 02:47:07;;;;;;;15.50;5.80;;;1.20;83.00;;;;;;4706589;30;20413;-82
2023/02/28 02:49:38;;;;;;;17.88;7.13;;;1.20;83.40;;;;;;4700600;30;20748;-82
2023/02/28 02:52:12;;;;;;;13.50;5.97;;;1.20;83.30;;;;;;4708941;30;20056;-82
2023/02/28 02:54:43;;;;;;;12.73;6.00;;;1.20;83.60;;;;;;4698329;30;21012;-82
2023/02/28 02:57:24;;;;;;;15.18;6.38;;;1.20;83.90;;;;;;4684638;30;20094;-82
2023/02/28 02:59:53;;;;;;;15.80;6.75;;;1.20;83.50;;;;;;4688136;30;22342;-81
2023/02/28 03:02:22;;;;;;;16.52;8.05;;;1.20;83.60;;;;;;4698805;30;20148;-82
2023/02/28 03:04:53;;;;;;;17.05;7.97;;;1.20;83.90;;;;;;4696303;30;20626;-82
2023/02/28 03:07:21;;;;;;;15.55;6.80;;;1.20;83.40;;;;;;4696697;30;20726;-82
2023/02/28 03:09:53;;;;;;;18.27;7.32;;;1.20;83.80;;;;;;4696739;30;20095;-82
2023/02/28 03:12:23;;;;;;;17.83;6.83;;;1.20;83.60;;;;;;4675868;30;20072;-82
2023/02/28 03:15:11;;;;;;;16.23;6.07;;;1.20;83.70;;;;;;4695834;30;20061;-82
2023/02/28 03:18:09;;;;;;;19.27;7.20;;;1.20;83.70;;;;;;4706571;30;20057;-82
2023/02/28 03:20:45;;;;;;;19.20;7.60;;;1.20;83.70;;;;;;4688646;30;20060;-82
2023/02/28 03:23:34;;;;;;;16.15;7.15;;;1.20;84.60;;;;;;4684767;30;20068;-82
2023/02/28 03:26:07;;;;;;;17.05;5.80;;;1.20;83.80;;;;;;4704674;30;20063;-82
2023/02/28 03:28:46;;;;;;;20.55;6.90;;;1.20;83.60;;;;;;4714510;30;20122;-82
2023/02/28 03:31:38;;;;;;;16.15;5.90;;;1.20;83.30;;;;;;4687800;30;20056;-82
2023/02/28 03:34:32;;;;;;;18.05;6.13;;;1.20;83.30;;;;;;4644245;30;20064;-82
2023/02/28 03:37:07;;;;;;;15.30;6.05;;;1.20;84.10;;;;;;4684182;30;20153;-82
2023/02/28 03:39:43;;;;;;;15.13;5.82;;;1.20;83.60;;;;;;4696658;30;20772;-83
2023/02/28 03:42:23;;;;;;;15.88;6.07;;;1.20;83.90;;;;;;4687269;30;20067;-81
2023/02/28 03:45:09;;;;;;;15.25;5.88;;;1.20;83.90;;;;;;4686878;30;20060;-82
2023/02/28 03:47:58;;;;;;;15.00;6.00;;;1.20;84.00;;;;;;4683768;30;20057;-82
2023/02/28 03:50:30;;;;;;;14.45;5.90;;;1.20;83.50;;;;;;4682083;30;20817;-82
2023/02/28 03:53:04;;;;;;;15.80;5.70;;;1.20;83.30;;;;;;4703045;30;20057;-82
2023/02/28 03:55:39;;;;;;;25.63;7.45;;;1.20;83.80;;;;;;4684758;30;20552;-82
2023/02/28 03:58:22;;;;;;;21.02;7.78;;;1.20;83.50;;;;;;4681710;30;22348;-82
2023/02/28 04:00:51;;;;;;;;;;;1.20;83.50;;;;;;4659124;30;20099;-82
2023/02/28 04:03:19;;;;;;;21.42;6.40;;;1.20;83.70;;;;;;4684542;30;20413;-82
2023/02/28 04:05:56;;;;;;;20.75;6.88;;;1.20;84.00;;;;;;4710192;30;20415;-82
2023/02/28 04:08:24;;;;;;;22.08;7.00;;;1.20;84.00;;;;;;4713970;30;20509;-82
2023/02/28 04:11:14;;;;;;;19.70;6.68;;;1.20;83.90;;;;;;4686514;30;20202;-82
2023/02/28 04:13:41;;;;;;;20.17;6.45;;;1.20;83.40;;;;;;4669554;30;20045;-82
2023/02/28 04:16:12;;;;;;;20.05;6.47;;;1.20;84.00;;;;;;4680392;30;20298;-82
2023/02/28 04:19:01;;;;;;;17.48;6.60;;;1.20;84.70;;;;;;4692978;30;20060;-82
2023/02/28 04:21:30;;;;;;;19.40;6.30;;;1.10;83.90;;;;;;4696353;30;20502;-82
2023/02/28 04:24:00;;;;;;;18.52;6.85;;;1.20;84.40;;;;;;4689074;30;20668;-82
2023/02/28 04:26:32;;;;;;;14.98;6.30;;;1.10;83.90;;;;;;4695070;30;20182;-82
2023/02/28 04:29:00;;;;;;;17.85;5.55;;;1.10;83.90;;;;;;4700654;30;20068;-82
2023/02/28 04:31:27;;;;;;;20.42;6.45;;;1.00;83.70;;;;;;4667401;30;20060;-82
2023/02/28 04:33:55;;;;;;;15.50;5.15;;;1.10;83.90;;;;;;4686512;30;20052;-82
2023/02/28 04:36:23;;;;;;;12.75;5.38;;;1.10;83.50;;;;;;4692738;30;22542;-82
2023/02/28 04:38:50;;;;;;;18.27;6.22;;;1.10;83.50;;;;;;4674409;30;20056;-82
2023/02/28 04:41:19;;;;;;;16.67;5.45;;;1.20;83.70;;;;;;4687163;30;20549;-82
2023/02/28 04:43:46;;;;;;;14.38;5.35;;;1.20;83.50;;;;;;4669292;30;20057;-82
2023/02/28 04:46:13;;;;;;;15.77;5.88;;;1.20;83.70;;;;;;4672856;30;20072;-82
2023/02/28 04:48:40;;;;;;;11.73;4.93;;;1.20;84.30;;;;;;4684999;30;20060;-82
2023/02/28 04:51:10;;;;;;;11.57;6.00;;;1.20;84.00;;;;;;4682966;30;20108;-82
2023/02/28 04:53:39;;;;;;;12.40;5.25;;;1.20;84.00;;;;;;4686011;30;20556;-82
2023/02/28 04:56:07;;;;;;;12.27;4.60;;;1.20;83.70;;;;;;4683871;30;20068;-82
2023/02/28 04:58:35;;;;;;;11.32;4.43;;;1.20;84.40;;;;;;4690965;30;20769;-82
2023/02/28 05:01:23;;;;;;;11.07;4.80;;;1.30;84.10;;;;;;4710724;30;20111;-82
2023/02/28 05:03:51;;;;;;;16.27;5.38;;;1.20;83.90;;;;;;4691611;30;20090;-82
2023/02/28 05:06:20;;;;;;;17.35;5.88;;;1.10;83.20;;;;;;4681103;30;20056;-82
2023/02/28 05:08:47;;;;;;;13.55;5.25;;;1.20;83.40;;;;;;4705006;30;20121;-83
2023/02/28 05:11:21;;;;;;;12.18;4.95;;;1.20;83.30;;;;;;4705634;30;20049;-83
2023/02/28 05:13:49;;;;;;;14.25;5.40;;;1.10;82.90;;;;;;4681598;30;20072;-83
2023/02/28 05:16:17;;;;;;;15.70;6.20;;;1.20;83.10;;;;;;4703030;30;20064;-82
2023/02/28 05:18:45;;;;;;;17.15;5.30;;;1.10;83.20;;;;;;4689640;30;20132;-82
2023/02/28 05:21:32;;;;;;;18.08;6.30;;;1.20;83.50;;;;;;4681847;30;20091;-82
2023/02/28 05:24:03;;;;;;;14.32;5.80;;;1.20;83.80;;;;;;4681352;30;20061;-82
2023/02/28 05:26:33;;;;;;;17.23;6.40;;;1.20;83.90;;;;;;4689366;30;20186;-81
2023/02/28 05:29:01;;;;;;;14.20;5.47;;;1.20;83.70;;;;;;4688159;30;20069;-82
2023/02/28 05:31:28;;;;;;;19.70;6.28;;;1.20;83.80;;;;;;4695341;30;20837;-82
2023/02/28 05:33:56;;;;;;;14.07;5.65;;;1.20;84.00;;;;;;4684607;30;20057;-82
2023/02/28 05:36:23;;;;;;;14.40;6.15;;;1.10;83.50;;;;;;4702977;30;20533;-82
2023/02/28 05:38:53;;;;;;;17.55;6.18;;;1.20;83.80;;;;;;4707608;30;20082;-82
2023/02/28 05:41:20;;;;;;;14.77;5.90;;;1.10;83.40;;;;;;4706500;30;20061;-82
2023/02/28 05:43:48;;;;;;;14.07;5.95;;;1.10;83.50;;;;;;4701271;30;20076;-82
2023/02/28 05:46:16;;;;;;;13.25;5.93;;;1.20;83.80;;;;;;4684832;30;20048;-82
2023/02/28 05:48:45;;;;;;;13.48;5.22;;;1.20;83.50;;;;;;4694668;30;20052;-82
2023/02/28 05:51:12;;;;;;;14.32;6.00;;;1.20;83.50;;;;;;4690663;30;20742;-82
2023/02/28 05:53:40;;;;;;;20.38;9.23;;;1.30;83.50;;;;;;4709828;30;20061;-82
2023/02/28 05:56:07;;;;;;;28.25;9.32;;;1.20;83.30;;;;;;4699358;30;20166;-82
2023/02/28 05:58:34;;;;;;;19.13;8.63;;;1.20;83.50;;;;;;4699241;30;20061;-82
2023/02/28 06:01:40;;;;;;;20.00;7.85;;;1.10;83.50;;;;;;4709621;30;20068;-82
2023/02/28 06:04:09;;;;;;;17.40;7.80;;;1.20;83.80;;;;;;4688962;30;20068;-82
2023/02/28 06:06:51;;;;;;;16.58;6.40;;;1.20;84.20;;;;;;4702233;30;20056;-82
2023/02/28 06:09:19;;;;;;;15.40;6.55;;;1.20;83.80;;;;;;4703558;30;20057;-82
2023/02/28 06:11:46;;;;;;;13.63;6.40;;;1.30;83.90;;;;;;4705235;30;20057;-82
2023/02/28 06:14:16;;;;;;;16.23;7.00;;;1.30;83.80;;;;;;4705574;30;20064;-82
2023/02/28 06:16:44;;;;;;;15.98;5.82;;;1.30;83.50;;;;;;4719025;30;20164;-82
2023/02/28 06:19:11;;;;;;;16.10;6.38;;;1.40;83.40;;;;;;4716473;30;20082;-82
2023/02/28 06:21:39;;;;;;;15.98;6.72;;;1.30;83.00;;;;;;4715110;30;20057;-82
2023/02/28 06:24:06;;;;;;;16.52;6.03;;;1.40;83.20;;;;;;4682668;30;20061;-82
2023/02/28 06:26:33;;;;;;;17.02;6.72;;;1.30;82.80;;;;;;4720283;30;20516;-82
2023/02/28 06:29:01;;;;;;;15.00;5.40;;;1.30;82.60;;;;;;4721632;30;20072;-82
2023/02/28 06:31:28;;;;;;;12.57;6.00;;;1.30;82.50;;;;;;4699356;30;22088;-82
2023/02/28 06:33:56;;;;;;;13.50;5.97;;;1.30;82.00;;;;;;4681107;30;20063;-82
2023/02/28 06:36:23;;;;;;;16.27;6.03;;;1.30;81.60;;;;;;4686668;30;20818;-82
2023/02/28 06:38:55;;;;;;;15.77;5.22;;;1.30;81.60;;;;;;4690548;30;20057;-82
2023/02/28 06:41:25;;;;;;;13.60;6.13;;;1.40;82.40;;;;;;4701397;30;20064;-82
2023/02/28 06:43:53;;;;;;;12.40;4.68;;;1.50;81.50;;;;;;4700151;30;20057;-82
2023/02/28 06:46:20;;;;;;;15.60;6.15;;;1.50;81.50;;;;;;4720636;30;20049;-82
2023/02/28 06:48:47;;;;;;;12.40;5.88;;;1.60;81.60;;;;;;4712026;30;20113;-82
2023/02/28 06:51:20;;;;;;;15.13;5.47;;;1.60;81.00;;;;;;4702191;30;20057;-82
2023/02/28 06:53:47;;;;;;;15.65;5.13;;;1.70;81.30;;;;;;4714483;30;20677;-82
2023/02/28 06:56:17;;;;;;;13.57;6.32;;;1.70;80.60;;;;;;4702036;30;20056;-82
2023/02/28 06:58:52;;;;;;;12.38;5.57;;;1.70;80.20;;;;;;4690573;30;20797;-83
2023/02/28 07:01:22;;;;;;;12.60;5.85;;;1.70;80.00;;;;;;4704054;30;20061;-82
2023/02/28 07:03:52;;;;;;;11.07;4.38;;;1.90;80.50;;;;;;4715196;30;20060;-82
2023/02/28 07:06:22;;;;;;;8.90;4.63;;;1.90;80.50;;;;;;4745240;30;20052;-82
2023/02/28 07:08:51;;;;;;;14.93;4.75;;;2.00;80.00;;;;;;4723720;30;20061;-82
2023/02/28 07:11:22;;;;;;;11.23;4.72;;;2.00;79.80;;;;;;4731873;30;20065;-82
2023/02/28 07:13:53;;;;;;;14.48;6.18;;;2.00;79.30;;;;;;4733483;30;20070;-82
2023/02/28 07:16:21;;;;;;;21.58;11.77;;;2.10;79.10;;;;;;4743722;30;20083;-83
2023/02/28 07:18:49;;;;;;;16.23;7.05;;;2.10;79.50;;;;;;4739725;30;20057;-83
2023/02/28 07:21:16;;;;;;;13.52;5.82;;;2.10;79.00;;;;;;4732809;30;20048;-83
2023/02/28 07:23:43;;;;;;;11.13;4.55;;;2.10;78.50;;;;;;4730357;30;20061;-83
2023/02/28 07:26:14;;;;;;;9.38;4.28;;;2.20;78.60;;;;;;4711562;30;20060;-83
2023/02/28 07:28:42;;;;;;;12.02;4.97;;;2.30;78.60;;;;;;4719862;30;20073;-83
2023/02/28 07:31:11;;;;;;;11.27;4.38;;;1.90;78.00;;;;;;4717522;30;20045;-83
2023/02/28 07:33:39;;;;;;;13.35;5.75;;;2.40;78.20;;;;;;4707684;30;20513;-83
2023/02/28 07:36:13;;;;;;;16.50;6.10;;;2.50;78.20;;;;;;4738498;30;20061;-83
2023/02/28 07:38:43;;;;;;;21.30;7.43;;;2.60;78.30;;;;;;4725139;30;22327;-82
2023/02/28 07:41:20;;;;;;;19.50;6.30;;;2.70;78.30;;;;;;4739829;30;20079;-82
2023/02/28 07:43:47;;;;;;;13.20;5.72;;;2.70;77.60;;;;;;4738489;30;20555;-82
2023/02/28 07:46:16;;;;;;;12.63;4.45;;;2.80;76.90;;;;;;4703404;30;20544;-82
2023/02/28 07:48:47;;;;;;;17.98;6.95;;;2.90;77.40;;;;;;4699205;30;20052;-81
2023/02/28 07:51:15;;;;;;;10.18;3.42;;;2.90;77.20;;;;;;4737968;30;20057;-83
2023/02/28 07:53:42;;;;;;;8.02;3.33;;;3.20;75.70;;;;;;4732959;30;20057;-84
2023/02/28 07:56:16;;;;;;;10.20;2.90;;;3.10;74.80;;;;;;4783438;24;20096;-81
2023/02/28 07:58:45;;;;;;;9.25;2.90;;;3.10;74.70;;;;;;4674653;30;20071;-81
2023/02/28 08:01:18;;;;;;;8.60;2.38;;;3.10;74.90;;;;;;4718936;30;20053;-81
2023/02/28 08:03:46;;;;;;;;;;;3.10;74.50;;;;;;4678089;30;20057;-82
2023/02/28 08:06:21;;;;;;;8.45;2.75;;;3.20;74.50;;;;;;4719548;30;19931;-81
2023/02/28 08:08:49;;;;;;;5.30;2.65;;;3.10;73.90;;;;;;4715836;30;20061;-83
2023/02/28 08:11:17;;;;;;;6.05;2.40;;;3.20;73.90;;;;;;4679159;30;20060;-81
2023/02/28 08:13:45;;;;;;;7.25;2.78;;;3.30;73.30;;;;;;4668247;30;20124;-82
2023/02/28 08:16:17;;;;;;;7.00;2.35;;;3.30;73.60;;;;;;4703966;30;20061;-82
2023/02/28 08:18:44;;;;;;;9.48;3.13;;;3.40;73.70;;;;;;4715979;30;20060;-79
2023/02/28 08:21:12;;;;;;;6.93;2.40;;;3.40;73.90;;;;;;4689205;30;20061;-81
2023/02/28 08:23:39;;;;;;;5.88;2.83;;;3.40;75.10;;;;;;4674750;30;20065;-81
2023/02/28 08:26:06;;;;;;;9.48;3.03;;;3.50;74.90;;;;;;4693102;30;20065;-82
2023/02/28 08:28:34;;;;;;;6.20;2.30;;;3.50;74.20;;;;;;4706973;30;20093;-81
2023/02/28 08:31:06;;;;;;;7.00;2.83;;;3.50;74.40;;;;;;4772110;24;20035;-82
2023/02/28 08:33:38;;;;;;;8.65;2.72;;;3.60;74.60;;;;;;4719522;30;20061;-82
2023/02/28 08:36:07;;;;;;;6.28;2.40;;;3.50;74.10;;;;;;4722617;30;20131;-82
2023/02/28 08:38:35;;;;;;;7.75;2.97;;;3.60;73.30;;;;;;4734174;30;20057;-82
2023/02/28 08:41:08;;;;;;;6.60;2.17;;;3.70;74.10;;;;;;4729242;30;20087;-82
2023/02/28 08:43:48;;;;;;;6.53;2.00;;;3.90;73.40;;;;;;4691205;30;20712;-81
2023/02/28 08:46:17;;;;;;;6.80;2.85;;;4.00;74.00;;;;;;4729153;30;20028;-82
2023/02/28 08:48:46;;;;;;;5.45;2.40;;;4.00;74.40;;;;;;4927344;24;20045;-81
2023/02/28 08:51:18;;;;;;;3.90;1.92;;;3.90;74.10;;;;;;4725652;30;20044;-81
2023/02/28 08:53:45;;;;;;;7.05;2.53;;;4.00;74.10;;;;;;4705610;30;20053;-82
2023/02/28 08:56:16;;;;;;;7.63;2.47;;;3.90;74.90;;;;;;4711734;30;20161;-82
2023/02/28 08:58:45;;;;;;;4.63;1.75;;;4.10;75.40;;;;;;4723581;24;20076;-80
2023/02/28 09:01:14;;;;;;;5.22;2.08;;;4.10;75.20;;;;;;4726126;30;20063;-81
2023/02/28 09:03:43;;;;;;;5.53;2.17;;;4.10;75.40;;;;;;4697540;30;20061;-81
2023/02/28 09:06:13;;;;;;;6.50;2.30;;;4.10;74.30;;;;;;4656714;30;20068;-81
2023/02/28 09:08:43;;;;;;;6.82;2.13;;;4.10;74.70;;;;;;4685277;30;20052;-81
2023/02/28 09:11:10;;;;;;;6.00;2.35;;;4.30;74.50;;;;;;4728592;30;20063;-82
2023/02/28 09:13:38;;;;;;;6.82;2.42;;;4.30;75.30;;;;;;4703133;30;20064;-81
2023/02/28 09:16:07;;;;;;;5.85;2.35;;;4.40;74.80;;;;;;4704378;30;20095;-81
2023/02/28 09:18:37;;;;;;;6.28;1.90;;;4.40;74.50;;;;;;4723105;30;20068;-81
2023/02/28 09:21:06;;;;;;;6.90;2.40;;;4.50;75.30;;;;;;4720441;30;20045;-81
2023/02/28 09:23:33;;;;;;;4.63;1.77;;;4.40;74.80;;;;;;4727809;30;20033;-82
2023/02/28 09:26:01;;;;;;;4.53;1.52;;;4.60;75.50;;;;;;4697644;30;20148;-82
2023/02/28 09:28:28;;;;;;;5.68;2.17;;;4.70;76.20;;;;;;4711131;30;20076;-82
2023/02/28 09:30:58;;;;;;;4.75;2.15;;;4.70;75.40;;;;;;4727141;30;20068;-81
2023/02/28 09:33:26;;;;;;;5.18;1.98;;;4.70;76.40;;;;;;4717507;30;20157;-81
2023/02/28 09:36:00;;;;;;;8.00;3.25;;;4.80;76.60;;;;;;4676534;30;20063;-81
2023/02/28 09:38:28;;;;;;;4.68;2.03;;;4.90;76.10;;;;;;4706039;30;20061;-81
2023/02/28 09:40:58;;;;;;;6.85;2.67;;;4.90;75.10;;;;;;4708592;30;20063;-81
2023/02/28 09:43:33;;;;;;;5.63;2.10;;;4.90;75.30;;;;;;4685442;30;20052;-81
2023/02/28 09:46:29;;;;;;;7.75;2.83;;;5.00;75.30;;;;;;4714611;30;20053;-81
2023/02/28 09:49:00;;;;;;;8.13;2.20;;;5.10;75.50;;;;;;4693975;30;20462;-81
2023/02/28 09:51:56;;;;;;;4.75;1.77;;;5.30;75.80;;;;;;4704741;30;20061;-81
2023/02/28 09:54:27;;;;;;;7.40;2.28;;;5.20;75.30;;;;;;4683233;30;20053;-81
2023/02/28 09:57:04;;;;;;;5.07;2.35;;;5.10;74.60;;;;;;4706229;30;20088;-81
2023/02/28 09:59:52;;;;;;;6.43;2.30;;;5.40;75.70;;;;;;4693621;30;20033;-81
2023/02/28 10:02:38;;;;;;;5.70;2.28;;;5.60;74.40;;;;;;4686091;30;20061;-80
2023/02/28 10:05:19;;;;;;;4.20;1.65;;;5.60;74.70;;;;;;4705106;30;20056;-81
2023/02/28 10:07:54;;;;;;;7.20;2.90;;;5.60;74.70;;;;;;4683868;30;20067;-81
2023/02/28 10:10:30;;;;;;;6.15;2.50;;;5.50;74.40;;;;;;4696843;30;20057;-79
2023/02/28 10:13:01;;;;;;;4.43;2.13;;;5.70;74.10;;;;;;4683560;30;20057;-81
2023/02/28 10:15:33;;;;;;;7.53;2.95;;;5.60;74.30;;;;;;4712460;30;20056;-81
2023/02/28 10:18:06;;;;;;;4.70;2.30;;;5.80;74.10;;;;;;4701467;30;20111;-81
2023/02/28 10:20:39;;;;;;;5.95;2.35;;;6.10;74.70;;;;;;5016669;24;20041;-81
2023/02/28 10:23:26;;;;;;;4.32;2.33;;;6.30;73.40;;;;;;4701961;30;20056;-81
2023/02/28 10:26:24;;;;;;;5.35;2.38;;;6.10;73.80;;;;;;4961786;24;20122;31
2023/02/28 10:28:53;;;;;;;10.43;3.00;;;6.10;73.60;;;;;;4723327;30;20143;-82
2023/02/28 10:31:20;;;;;;;4.80;1.90;;;5.90;73.20;;;;;;4699579;30;20061;-81
2023/02/28 10:33:48;;;;;;;6.38;2.35;;;6.00;75.50;;;;;;4694081;30;20142;-81
2023/02/28 10:36:28;;;;;;;4.20;1.95;;;5.80;72.90;;;;;;5200130;24;20156;-80
2023/02/28 10:45:37;;;;;;;20.17;14.75;;;5.80;74.80;;;;;;4675223;30;20054;-81
2023/02/28 10:48:13;;;;;;;7.97;4.65;;;5.40;74.20;;;;;;4795758;24;20131;-82
2023/02/28 10:50:56;;;;;;;6.15;2.47;;;5.60;75.10;;;;;;4854323;24;20099;-82
2023/02/28 10:57:19;;;;;;;6.50;2.63;;;5.80;74.60;;;;;;4984426;24;20064;-81
2023/02/28 11:00:31;;;;;;;6.28;2.80;;;5.80;75.60;;;;;;4859166;24;22514;31
2023/02/28 11:02:59;;;;;;;6.78;3.08;;;5.90;75.60;;;;;;4726510;30;20152;-82
2023/02/28 11:05:32;;;;;;;6.68;2.75;;;5.80;74.80;;;;;;4721551;30;20053;-80
2023/02/28 11:08:06;;;;;;;5.63;2.85;;;5.90;76.50;;;;;;4677497;30;20088;-82
2023/02/28 11:10:34;;;;;;;10.23;3.65;;;5.90;76.00;;;;;;4716632;30;20037;-81
2023/02/28 11:13:03;;;;;;;8.75;3.88;;;5.90;76.00;;;;;;4705102;30;20057;-81
2023/02/28 11:15:33;;;;;;;14.93;6.68;;;5.90;75.80;;;;;;4673311;30;20072;-82
2023/02/28 11:18:19;;;;;;;8.68;4.65;;;5.90;75.60;;;;;;4874756;24;20156;-80
2023/02/28 11:20:54;;;;;;;11.55;6.07;;;5.80;75.70;;;;;;4712056;30;20061;-82
2023/02/28 11:23:32;;;;;;;12.07;6.95;;;5.80;75.40;;;;;;4712972;30;20107;-82
2023/02/28 11:26:10;;;;;;;9.65;5.18;;;5.80;75.30;;;;;;4732137;30;20040;-82
2023/02/28 11:28:40;;;;;;;8.43;3.83;;;5.40;75.10;;;;;;4730837;30;20053;-80
2023/02/28 11:31:13;;;;;;;7.68;3.28;;;6.10;76.50;;;;;;4721204;30;20085;-81
2023/02/28 11:33:51;;;;;;;5.53;2.67;;;6.20;74.80;;;;;;4847374;24;20112;-81
2023/02/28 11:36:26;;;;;;;9.27;2.90;;;6.40;74.80;;;;;;4709666;30;20060;-82
2023/02/28 11:39:16;;;;;;;10.23;3.47;;;6.70;74.70;;;;;;4849012;24;20065;-81
2023/02/28 11:45:14;;;;;;;8.93;3.58;;;6.80;72.60;;;;;;5441617;24;20056;31
2023/02/28 11:51:55;;;;;;;7.95;4.47;;;6.80;72.20;;;;;;5596389;24;20186;-80
2023/02/28 11:54:57;;;;;;;5.90;2.83;;;6.90;72.70;;;;;;4726763;24;20063;-81
2023/02/28 12:25:49;;;;;;;6.30;3.30;;;7.00;71.80;;;;;;5467076;24;20064;31
2023/02/28 12:42:20;;;;;;;6.13;2.40;;;7.40;71.00;;;;;;5542347;24;20035;-81
2023/02/28 12:45:10;;;;;;;6.72;3.30;;;7.30;71.40;;;;;;5367807;24;20027;-83
2023/02/28 12:47:59;;;;;;;7.55;2.97;;;7.30;71.90;;;;;;4781278;24;20061;-81
2023/02/28 13:02:47;;;;;;;8.13;3.85;;;7.10;71.90;;;;;;5578862;24;20173;-81
2023/02/28 13:09:03;;;;;;;8.75;4.18;;;6.90;71.70;;;;;;4954275;24;21120;-81
2023/02/28 13:18:33;;;;;;;11.05;3.47;;;6.90;73.00;;;;;;5464596;24;20078;-82
2023/02/28 13:21:07;;;;;;;9.50;4.00;;;6.80;72.90;;;;;;4768754;24;20498;-81
2023/02/28 13:29:45;;;;;;;10.73;3.75;;;6.70;73.50;;;;;;5454588;24;20120;-81
2023/02/28 13:35:45;;;;;;;9.18;4.57;;;6.80;73.90;;;;;;4790551;24;20078;-81
2023/02/28 13:38:34;;;;;;;11.23;4.65;;;6.80;73.60;;;;;;5102521;24;20038;31
2023/02/28 13:41:43;;;;;;;12.10;4.32;;;6.60;73.20;;;;;;5290271;24;20039;31
2023/02/28 13:50:39;;;;;;;9.88;4.88;;;6.80;75.10;;;;;;5315271;24;20399;-81
2023/02/28 13:56:49;;;;;;;9.30;4.30;;;6.70;73.70;;;;;;5316453;24;20050;-82
2023/02/28 14:13:55;;;;;;;8.93;3.90;;;6.60;75.00;;;;;;4835892;24;20031;31
2023/02/28 15:02:25;;;;;;;8.63;3.78;;;6.10;76.80;;;;;;5550389;24;20035;-79
2023/02/28 15:05:30;;;;;;;12.20;3.42;;;6.10;76.70;;;;;;4684615;30;20038;-81
2023/02/28 15:08:16;;;;;;;10.27;4.18;;;5.90;76.20;;;;;;4731853;30;20036;-80
2023/02/28 15:10:45;;;;;;;54.15;17.80;;;5.90;76.70;;;;;;4770819;24;20113;-80
2023/02/28 15:13:15;;;;;;;82.13;25.77;;;5.90;77.20;;;;;;4947525;24;20045;-82
2023/02/28 15:15:50;;;;;;;26.63;11.20;;;5.90;77.60;;;;;;5300700;24;20851;-81
2023/02/28 15:18:33;;;;;;;19.50;9.50;;;5.90;77.60;;;;;;5080249;24;20072;-82
2023/02/28 15:21:09;;;;;;;13.38;6.55;;;5.80;77.10;;;;;;4705748;30;20067;-81
2023/02/28 15:23:39;;;;;;;14.18;6.55;;;5.80;77.40;;;;;;4720178;30;20154;-80
2023/02/28 15:26:07;;;;;;;18.77;9.35;;;5.80;77.60;;;;;;4718880;30;20063;-80
2023/02/28 15:28:35;;;;;;;13.50;5.93;;;5.80;77.90;;;;;;4957534;24;20032;-79
2023/02/28 15:31:22;;;;;;;10.10;4.40;;;5.80;78.40;;;;;;4746503;30;20040;-82
2023/02/28 15:33:54;;;;;;;12.23;6.07;;;5.70;78.80;;;;;;4986465;24;20073;-81
2023/02/28 15:36:27;;;;;;;10.50;4.88;;;5.70;78.60;;;;;;4928858;24;20065;-80
2023/02/28 15:38:55;;;;;;;11.75;5.78;;;5.70;78.60;;;;;;4719810;30;20109;-82
2023/02/28 15:41:38;;;;;;;11.05;4.97;;;5.70;78.90;;;;;;4778112;24;20050;-82
2023/02/28 15:44:15;;;;;;;12.50;4.95;;;5.60;79.00;;;;;;4726935;25;20072;-80
2023/02/28 15:47:14;;;;;;;11.88;5.57;;;5.60;79.40;;;;;;4896731;25;20079;-82
2023/02/28 15:49:49;;;;;;;12.50;5.47;;;5.60;79.80;;;;;;5207451;24;20062;-81
2023/02/28 15:52:21;;;;;;;15.77;6.85;;;5.60;79.90;;;;;;4711507;30;20033;-80
2023/02/28 15:54:49;;;;;;;12.07;6.22;;;5.60;80.20;;;;;;4733893;30;20786;-83
2023/02/28 15:57:21;;;;;;;12.95;6.32;;;5.60;80.40;;;;;;4673826;30;20231;-82
2023/02/28 15:59:56;;;;;;;12.50;6.15;;;5.60;80.40;;;;;;4699061;30;22662;-81
2023/02/28 16:02:33;;;;;;;14.90;6.05;;;5.50;80.70;;;;;;4699073;30;20258;-81
2023/02/28 16:05:10;;;;;;;10.63;5.07;;;5.50;80.80;;;;;;4729608;30;20100;-82